Orange Lake, Florida
Current Conditions -  °F | °C
As of 12:50 PM on Friday 24 Oct 2014 (Local Time) from KOCF Reporting Station
Few Clouds Few Clouds  
Wind Chill: 75°   Ceiling: Unl
Heat Index: 75°   Visibility: 10mi
Dew Point: 54°   Wind: 3mph
Humidity: 47%   Direction: 10°N
Pressure: 30.02"   Gusts: NA
Location:  29.43°N, 82.22°W
Report Text: KOCF 241650Z 01003KT 10SM FEW030 24/12 A3002
Loading
Personal Weather Stations






























Interactive Weather Map
Tropical Storm Tracking
New forecast layout! Learn more

10-Day Weather Forecast

Advertisements
Track Severe Weather on mobile